Time;durP1;ratioP1;P1;durP2;ratioP2;P2;SDS_P1;SDS_P2;PMS_P1;PMS_P2;Temp;Humidity;BMP_temperature;BMP_pressure;BME280_temperature;BME280_humidity;BME280_pressure;Samples;Min_cycle;Max_cycle;Signal;HPM_P1;HPM_P2
2021/06/03 00:02:05;;;;;;;8.95;5.78;;;;;;;14.92;nan;102427.03;5055952;28;20913;-84
2021/06/03 00:04:31;;;;;;;9.75;6.03;;;;;;;14.77;nan;102420.22;5043476;28;20028;-86
2021/06/03 00:06:59;;;;;;;6.38;5.30;;;;;;;14.75;nan;102421.53;5056597;28;20021;-84
2021/06/03 00:09:25;;;;;;;8.15;6.45;;;;;;;14.60;nan;102424.69;5044494;28;20060;-84
2021/06/03 00:11:50;;;;;;;7.63;5.68;;;;;;;14.51;nan;102426.88;5043338;28;20027;-84
2021/06/03 00:14:17;;;;;;;8.55;5.72;;;;;;;14.57;nan;102429.72;5044186;28;20029;-87
2021/06/03 00:16:43;;;;;;;7.40;5.35;;;;;;;14.50;nan;102424.44;5045666;28;20532;-83
2021/06/03 00:19:10;;;;;;;9.15;6.05;;;;;;;14.41;nan;102434.72;5041464;28;20086;-84
2021/06/03 00:21:37;;;;;;;7.82;5.57;;;;;;;14.38;nan;102427.09;5039709;28;20056;-86
2021/06/03 00:24:04;;;;;;;7.03;5.38;;;;;;;14.45;nan;102424.31;5045003;28;20502;-87
2021/06/03 00:26:30;;;;;;;12.32;5.85;;;;;;;14.31;nan;102426.38;5042148;28;20029;-87
2021/06/03 00:28:55;;;;;;;7.93;5.47;;;;;;;14.32;nan;102438.78;5047585;28;20955;-87
2021/06/03 00:31:21;;;;;;;10.32;6.25;;;;;;;14.27;nan;102430.59;5050175;28;20043;-86
2021/06/03 00:33:46;;;;;;;8.00;5.93;;;;;;;14.26;nan;102444.28;5051106;28;20556;-87
2021/06/03 00:36:13;;;;;;;8.32;5.90;;;;;;;14.27;nan;102443.25;5046098;28;20060;-86
2021/06/03 00:38:40;;;;;;;9.43;6.35;;;;;;;14.29;nan;102447.34;5047675;28;20033;-86
2021/06/03 00:41:07;;;;;;;12.48;6.00;;;;;;;14.18;nan;102453.53;5041250;28;20028;-87
2021/06/03 00:43:32;;;;;;;8.23;5.72;;;;;;;14.23;nan;102452.84;5046376;28;20040;-87
2021/06/03 00:45:58;;;;;;;8.68;5.90;;;;;;;14.31;nan;102455.19;5042292;28;20391;-86
2021/06/03 00:48:24;;;;;;;7.88;6.05;;;;;;;14.26;nan;102449.69;5038544;28;20025;-87
2021/06/03 00:50:55;;;;;;;10.13;5.50;;;;;;;14.26;nan;102447.00;5049327;28;20039;-87
2021/06/03 00:53:21;;;;;;;8.82;5.80;;;;;;;14.21;nan;102461.19;5046965;28;20028;-86
2021/06/03 00:55:51;;;;;;;8.70;6.00;;;;;;;14.24;nan;102451.81;5041472;28;20023;-84
2021/06/03 00:58:17;;;;;;;8.63;5.65;;;;;;;14.19;nan;102449.81;5067091;28;20025;-84
2021/06/03 01:00:43;;;;;;;7.30;5.75;;;;;;;14.18;nan;102448.13;5035896;28;20036;-84
2021/06/03 01:03:10;;;;;;;11.52;5.45;;;;;;;14.12;nan;102452.56;5071050;28;20032;-86
2021/06/03 01:05:38;;;;;;;15.45;6.65;;;;;;;14.10;nan;102452.00;5041415;28;20491;-83
2021/06/03 01:08:05;;;;;;;15.52;6.70;;;;;;;13.95;nan;102451.59;5063639;28;20058;-87
2021/06/03 01:11:04;;;;;;;10.18;5.75;;;;;;;13.85;nan;102459.41;5037079;28;20021;-86
2021/06/03 01:13:37;;;;;;;10.32;6.28;;;;;;;13.75;nan;102451.03;5055262;28;20129;-86
2021/06/03 01:16:04;;;;;;;9.57;6.32;;;;;;;13.65;nan;102453.47;5044321;28;20488;-86
2021/06/03 01:18:35;;;;;;;7.30;5.78;;;;;;;13.45;nan;102449.13;5045373;28;20025;-87
2021/06/03 01:21:08;;;;;;;9.43;5.82;;;;;;;13.42;nan;102454.16;5043657;28;20616;-87
2021/06/03 01:23:38;;;;;;;8.00;5.72;;;;;;;13.32;nan;102449.31;5047796;28;20817;-86
2021/06/03 01:26:04;;;;;;;8.02;5.45;;;;;;;13.22;nan;102454.38;5042965;28;20453;-86
2021/06/03 01:28:32;;;;;;;10.88;6.60;;;;;;;13.15;nan;102458.97;5047398;28;20501;-87
2021/06/03 01:30:58;;;;;;;8.95;5.72;;;;;;;13.06;nan;102449.53;5053145;28;20124;-85
2021/06/03 01:33:28;;;;;;;9.80;5.68;;;;;;;12.92;nan;102451.53;5034273;28;20111;-84
2021/06/03 01:35:58;;;;;;;9.20;5.60;;;;;;;12.93;nan;102464.78;5059224;28;20029;-85
2021/06/03 01:38:28;;;;;;;9.88;6.75;;;;;;;12.79;nan;102470.53;5057639;28;20535;-87
2021/06/03 01:40:56;;;;;;;8.07;5.85;;;;;;;12.76;nan;102457.50;5038757;28;20021;-86
2021/06/03 01:43:23;;;;;;;11.55;6.15;;;;;;;12.68;nan;102464.81;5045373;28;20020;-86
2021/06/03 01:45:51;;;;;;;10.88;5.93;;;;;;;12.70;nan;102464.56;5053384;28;20116;-84
2021/06/03 01:48:19;;;;;;;8.02;5.55;;;;;;;12.62;nan;102459.50;5043291;28;20032;-85
2021/06/03 01:50:47;;;;;;;12.75;6.18;;;;;;;12.61;nan;102452.47;5042305;28;20095;-84
2021/06/03 01:53:14;;;;;;;14.18;6.15;;;;;;;12.53;nan;102467.00;5043082;28;20032;-85
2021/06/03 01:55:40;;;;;;;8.13;6.18;;;;;;;12.38;nan;102466.47;5041351;28;20132;-84
2021/06/03 01:58:05;;;;;;;10.25;5.65;;;;;;;12.37;nan;102465.66;5036224;28;20699;-84
2021/06/03 02:00:33;;;;;;;9.57;5.68;;;;;;;12.35;nan;102470.44;5044197;28;20606;-84
2021/06/03 02:02:58;;;;;;;8.07;5.47;;;;;;;12.31;nan;102465.72;5044038;28;20150;-85
2021/06/03 02:05:24;;;;;;;8.90;6.15;;;;;;;12.20;nan;102464.53;5038675;28;20093;-84
2021/06/03 02:07:50;;;;;;;8.80;6.07;;;;;;;12.15;nan;102468.94;5043242;28;20031;-84
2021/06/03 02:10:18;;;;;;;10.25;6.32;;;;;;;12.05;nan;102472.09;5034628;28;20487;-84
2021/06/03 02:13:09;;;;;;;9.88;5.82;;;;;;;12.00;nan;102474.59;5040316;28;20494;-83
2021/06/03 02:15:46;;;;;;;8.63;5.90;;;;;;;11.90;nan;102476.94;5054239;28;20032;-84
2021/06/03 02:18:15;;;;;;;8.23;5.32;;;;;;;11.87;nan;102472.81;5044698;28;20112;-84
2021/06/03 02:20:42;;;;;;;15.68;6.25;;;;;;;11.80;nan;102478.19;5038373;28;20087;-84
2021/06/03 02:23:10;;;;;;;9.88;5.80;;;;;;;11.89;nan;102480.66;5044392;28;20032;-84
2021/06/03 02:25:36;;;;;;;7.93;5.65;;;;;;;11.83;nan;102473.44;5060807;28;20061;-83
2021/06/03 02:28:04;;;;;;;13.25;6.10;;;;;;;11.47;nan;102482.84;5040739;28;20514;-84
2021/06/03 02:30:32;;;;;;;8.40;6.38;;;;;;;11.46;nan;102486.56;5046328;28;20041;-82
2021/06/03 02:32:59;;;;;;;11.27;6.53;;;;;;;11.07;nan;102482.94;5045227;28;20040;-84
2021/06/03 02:35:25;;;;;;;11.50;7.57;;;;;;;11.07;nan;102492.84;5041926;28;20039;-85
2021/06/03 02:37:51;;;;;;;8.02;6.38;;;;;;;11.11;nan;102497.59;5047018;28;20032;-84
2021/06/03 02:40:26;;;;;;;7.93;6.15;;;;;;;11.14;nan;102488.31;5036825;28;20127;-84
2021/06/03 02:42:52;;;;;;;7.95;6.55;;;;;;;11.20;nan;102487.47;5041351;28;20056;-83
2021/06/03 02:45:26;;;;;;;11.85;6.28;;;;;;;11.16;nan;102486.25;5042126;28;20067;-83
2021/06/03 02:47:53;;;;;;;10.20;6.30;;;;;;;11.24;nan;102493.25;5041711;28;20022;-82
2021/06/03 02:50:20;;;;;;;8.98;6.32;;;;;;;11.20;nan;102490.16;5036964;28;20082;-83
2021/06/03 02:52:46;;;;;;;8.23;6.68;;;;;;;11.18;nan;102493.06;5058304;28;20024;-83
2021/06/03 02:55:15;;;;;;;30.13;7.60;;;;;;;11.16;nan;102494.31;5043773;28;20024;-83
2021/06/03 02:57:41;;;;;;;23.45;7.45;;;;;;;11.10;nan;102498.63;5044054;28;20402;-83
2021/06/03 03:00:13;;;;;;;10.65;6.55;;;;;;;11.04;nan;102506.69;5055993;28;20027;-83
2021/06/03 03:02:38;;;;;;;13.13;6.65;;;;;;;11.03;nan;102513.91;5041863;28;20101;-83
2021/06/03 03:05:05;;;;;;;9.35;6.40;;;;;;;10.96;nan;102497.00;5036601;28;20043;-83
2021/06/03 03:07:32;;;;;;;10.05;6.28;;;;;;;11.02;nan;102506.06;5040207;28;20023;-83
2021/06/03 03:09:59;;;;;;;9.70;6.07;;;;;;;10.99;nan;102501.97;5038641;28;20107;-83
2021/06/03 03:12:25;;;;;;;9.05;6.22;;;;;;;10.94;nan;102501.72;5039608;28;20032;-83
2021/06/03 03:14:51;;;;;;;10.60;6.47;;;;;;;10.87;nan;102506.28;5063509;28;20025;-84
2021/06/03 03:17:16;;;;;;;9.32;6.15;;;;;;;10.94;nan;102501.72;5050582;28;20024;-84
2021/06/03 03:19:42;;;;;;;8.68;5.72;;;;;;;10.97;nan;102509.38;5047514;28;20258;-83
2021/06/03 03:22:07;;;;;;;7.97;6.00;;;;;;;11.01;nan;102499.88;5043616;28;20111;-83
2021/06/03 03:24:33;;;;;;;10.77;6.68;;;;;;;11.01;nan;102502.56;5040922;28;20394;-83
2021/06/03 03:26:58;;;;;;;8.07;6.35;;;;;;;11.03;nan;102500.50;5044678;28;20116;-84
2021/06/03 03:29:24;;;;;;;8.45;6.32;;;;;;;11.06;nan;102512.66;5038776;28;20388;-83
2021/06/03 03:31:50;;;;;;;10.40;7.28;;;;;;;11.12;nan;102511.81;5040684;28;20033;-83
2021/06/03 03:34:15;;;;;;;13.15;7.13;;;;;;;11.15;nan;102509.56;5038739;28;20112;-82
2021/06/03 03:36:41;;;;;;;9.75;6.38;;;;;;;11.28;nan;102510.56;5044022;28;20054;-81
2021/06/03 03:39:08;;;;;;;6.95;5.88;;;;;;;11.42;nan;102509.50;5045987;28;20093;-83
2021/06/03 03:41:34;;;;;;;8.02;6.47;;;;;;;11.49;nan;102510.31;5037829;28;20569;-82
2021/06/03 03:43:59;;;;;;;10.02;7.45;;;;;;;11.57;nan;102509.25;5049001;28;20036;-84
2021/06/03 03:46:28;;;;;;;10.77;7.07;;;;;;;11.55;nan;102511.34;5045496;28;20021;-83
2021/06/03 03:48:53;;;;;;;9.85;6.30;;;;;;;11.51;nan;102505.56;5041457;28;20021;-83
2021/06/03 03:51:19;;;;;;;8.20;6.60;;;;;;;11.66;nan;102500.75;5041101;28;20073;-84
2021/06/03 03:53:45;;;;;;;7.47;6.22;;;;;;;11.78;nan;102511.66;5053269;28;20024;-83
2021/06/03 03:56:13;;;;;;;9.75;6.70;;;;;;;11.89;nan;102507.53;5044356;28;20024;-83
2021/06/03 03:58:42;;;;;;;9.98;6.90;;;;;;;11.98;nan;102503.53;5045542;28;20086;-83
2021/06/03 04:01:07;;;;;;;7.53;6.47;;;;;;;12.10;nan;102507.19;5032855;28;20024;-83
2021/06/03 04:03:33;;;;;;;9.55;6.78;;;;;;;12.15;nan;102512.75;5037838;28;20047;-82
2021/06/03 04:05:59;;;;;;;10.93;7.22;;;;;;;12.19;nan;102513.94;5044457;28;20021;-84
2021/06/03 04:08:24;;;;;;;13.90;6.45;;;;;;;12.30;nan;102513.28;5038861;28;20036;-84
2021/06/03 04:10:50;;;;;;;16.80;7.07;;;;;;;12.40;nan;102505.56;5033751;28;20028;-84
2021/06/03 04:13:16;;;;;;;12.00;6.40;;;;;;;12.57;nan;102510.41;5037964;28;20028;-85
2021/06/03 04:15:41;;;;;;;15.00;6.47;;;;;;;12.75;nan;102509.63;5036547;28;20492;-84
2021/06/03 04:18:07;;;;;;;10.95;6.85;;;;;;;12.82;nan;102515.81;5040066;28;20082;-83
2021/06/03 04:20:35;;;;;;;10.32;6.20;;;;;;;13.09;nan;102516.38;5052715;28;20818;-83
2021/06/03 04:23:01;;;;;;;7.85;5.50;;;;;;;13.26;nan;102517.47;5035552;28;20131;-83
2021/06/03 04:25:28;;;;;;;12.70;6.28;;;;;;;13.47;nan;102518.94;5050583;28;20504;-82
2021/06/03 04:27:54;;;;;;;10.35;5.72;;;;;;;13.63;nan;102517.47;5046026;28;20064;-82
2021/06/03 04:30:23;;;;;;;7.18;5.45;;;;;;;13.72;nan;102514.28;5065192;28;20093;-82
2021/06/03 04:32:49;;;;;;;8.68;6.32;;;;;;;13.88;nan;102520.91;5041557;28;20039;-82
2021/06/03 04:35:17;;;;;;;9.30;5.38;;;;;;;13.96;nan;102522.47;5035697;28;20078;-82
2021/06/03 04:37:44;;;;;;;9.68;5.95;;;;;;;14.05;nan;102518.44;5038822;28;20112;-82
2021/06/03 04:40:11;;;;;;;7.05;4.82;;;;;;;14.21;nan;102526.69;5035804;28;20066;-82
2021/06/03 04:42:37;;;;;;;8.35;5.28;;;;;;;14.32;nan;102530.47;5048542;28;20032;-82
2021/06/03 04:45:06;;;;;;;8.60;5.25;;;;;;;14.46;nan;102531.94;5036402;28;20078;-82
2021/06/03 04:47:32;;;;;;;5.85;4.40;;;;;;;14.63;nan;102529.41;5045078;28;20055;-84
2021/06/03 04:49:58;;;;;;;6.38;4.40;;;;;;;14.77;nan;102535.44;5040822;28;20558;-86
2021/06/03 04:52:28;;;;;;;8.77;4.65;;;;;;;14.93;nan;102542.03;5043144;28;20111;-86
2021/06/03 04:54:55;;;;;;;5.50;4.57;;;;;;;15.09;nan;102541.31;5046965;28;20029;-86
2021/06/03 04:57:20;;;;;;;9.48;5.45;;;;;;;15.06;nan;102536.38;5049127;28;20020;-86
2021/06/03 04:59:46;;;;;;;8.48;4.78;;;;;;;15.16;nan;102541.19;5036791;28;20040;-87
2021/06/03 05:02:11;;;;;;;7.15;5.18;;;;;;;15.44;nan;102546.72;5056521;28;20047;-85
2021/06/03 05:04:39;;;;;;;10.80;5.50;;;;;;;15.66;nan;102546.94;5041747;28;20391;-86
2021/06/03 05:07:04;;;;;;;10.10;4.53;;;;;;;15.83;nan;102538.91;5054394;28;20436;-85
2021/06/03 05:09:30;;;;;;;7.78;4.93;;;;;;;16.01;nan;102549.53;5042268;28;20033;-86
2021/06/03 05:11:55;;;;;;;8.50;5.35;;;;;;;16.13;nan;102549.47;5042582;28;20032;-86
2021/06/03 05:14:21;;;;;;;9.18;5.60;;;;;;;16.27;nan;102542.72;5036337;28;20021;-86
2021/06/03 05:16:47;;;;;;;7.78;4.50;;;;;;;16.36;nan;102540.47;5042119;28;20025;-85
2021/06/03 05:19:12;;;;;;;9.95;5.00;;;;;;;16.48;nan;102552.03;5074885;28;20032;-86
2021/06/03 05:21:37;;;;;;;7.72;4.70;;;;;;;16.56;nan;102546.22;5073014;28;20092;-86
2021/06/03 05:24:04;;;;;;;6.95;4.75;;;;;;;16.63;nan;102547.69;5086683;28;20036;-84
2021/06/03 05:26:29;;;;;;;9.65;4.93;;;;;;;16.80;nan;102546.94;5065830;28;20094;-87
2021/06/03 05:28:55;;;;;;;9.45;4.38;;;;;;;16.91;nan;102537.91;5068310;28;20013;-87
2021/06/03 05:31:20;;;;;;;4.85;4.07;;;;;;;17.03;nan;102540.50;5063318;28;20021;-87
2021/06/03 05:33:46;;;;;;;9.05;4.80;;;;;;;17.17;nan;102548.03;5069090;28;20032;-87
2021/06/03 05:36:11;;;;;;;8.80;4.78;;;;;;;17.26;nan;102551.16;5064970;28;20029;-85
2021/06/03 05:38:37;;;;;;;9.07;5.07;;;;;;;17.34;nan;102544.50;5080130;28;20109;-87
2021/06/03 05:41:12;;;;;;;8.15;4.30;;;;;;;17.49;nan;102550.13;5048375;28;20120;-90
2021/06/03 05:44:01;;;;;;;6.15;4.35;;;;;;;17.59;nan;102554.84;5000884;28;20048;-90
2021/06/03 05:47:13;;;;;;;7.55;4.30;;;;;;;17.59;nan;102555.66;5049891;28;20029;-89
2021/06/03 05:50:10;;;;;;;7.65;5.07;;;;;;;17.76;nan;102551.03;4960437;28;20110;-92
2021/06/03 05:52:36;;;;;;;10.05;4.78;;;;;;;17.86;nan;102555.78;5001927;28;20120;-90
2021/06/03 05:55:05;;;;;;;8.73;4.90;;;;;;;17.97;nan;102554.84;5043206;28;20124;-89
2021/06/03 05:57:34;;;;;;;6.55;4.80;;;;;;;18.12;nan;102559.59;5041341;28;20039;-91
2021/06/03 06:00:02;;;;;;;8.98;4.43;;;;;;;18.26;nan;102554.59;5041043;28;20044;-91
2021/06/03 06:02:45;;;;;;;6.15;4.13;;;;;;;18.37;nan;102559.06;5040312;28;20048;-93
2021/06/03 06:08:16;;;;;;;;;;;;;;;;;;;;;
2021/06/03 06:10:46;;;;;;;7.10;4.30;;;;;;;18.83;nan;102552.16;5044197;28;20596;-95
2021/06/03 06:16:15;;;;;;;5.22;3.53;;;;;;;18.97;nan;102564.22;5031475;28;20684;-91
2021/06/03 06:18:48;;;;;;;6.88;4.05;;;;;;;19.10;nan;102568.41;5043930;28;20265;-94
2021/06/03 06:21:21;;;;;;;6.15;4.15;;;;;;;19.21;nan;102563.81;5032483;28;20035;-92
2021/06/03 06:23:48;;;;;;;6.10;3.90;;;;;;;19.34;nan;102568.81;5049053;28;20539;-92
2021/06/03 06:26:17;;;;;;;6.05;4.18;;;;;;;19.46;nan;102569.44;5033697;28;20025;-89
2021/06/03 06:28:43;;;;;;;5.97;4.05;;;;;;;19.55;nan;102569.78;5039283;28;20037;-90
2021/06/03 06:31:22;;;;;;;;;;;;;;;;;;;;;
2021/06/03 06:33:56;;;;;;;5.53;3.63;;;;;;;19.71;nan;102570.66;5067611;28;20054;-96
2021/06/03 06:36:24;;;;;;;6.82;3.58;;;;;;;19.82;nan;102577.78;5046051;28;20028;-93
2021/06/03 06:39:01;;;;;;;3.95;3.20;;;;;;;19.97;nan;102572.41;5056613;28;20454;-94
2021/06/03 06:41:32;;;;;;;7.50;3.22;;;;;;;20.13;nan;102576.81;5050450;28;20029;-93
2021/06/03 06:44:10;;;;;;;4.88;3.28;;;;;;;20.27;nan;102573.56;5044787;28;20025;-94
2021/06/03 06:46:49;;;;;;;;;;;;;;;;;;;;;
2021/06/03 06:49:23;;;;;;;5.65;3.53;;;;;;;20.48;nan;102581.56;5076284;28;20016;-93
2021/06/03 06:52:23;;;;;;;;;;;;;;;;;;;;;
2021/06/03 06:58:00;;;;;;;4.82;2.80;;;;;;;20.77;nan;102578.28;5067766;28;20498;-93
2021/06/03 07:00:46;;;;;;;5.43;2.80;;;;;;;20.87;nan;102577.50;5066380;28;20055;-96
2021/06/03 07:03:12;;;;;;;4.30;3.03;;;;;;;20.95;nan;102576.94;5035818;28;20036;-88
2021/06/03 07:05:45;;;;;;;4.60;2.95;;;;;;;21.05;nan;102577.75;5048748;28;20028;-92
2021/06/03 07:08:13;;;;;;;5.28;2.78;;;;;;;21.17;nan;102577.44;5051354;28;20021;-91
2021/06/03 07:10:42;;;;;;;14.88;4.10;;;;;;;21.33;nan;102578.25;5056720;28;20031;-90
2021/06/03 07:13:08;;;;;;;10.10;3.20;;;;;;;21.52;nan;102576.56;5055319;28;20052;-90
2021/06/03 07:15:36;;;;;;;6.97;3.08;;;;;;;21.67;nan;102575.72;5045435;28;20110;-91
2021/06/03 07:18:02;;;;;;;7.60;3.22;;;;;;;21.78;nan;102571.03;5048784;28;20759;-88
2021/06/03 07:20:27;;;;;;;3.45;3.15;;;;;;;21.86;nan;102574.00;5048976;28;20025;-89
2021/06/03 07:23:03;;;;;;;4.82;2.80;;;;;;;21.92;nan;102572.91;5062570;28;20509;-90
2021/06/03 07:25:29;;;;;;;4.35;2.63;;;;;;;22.08;nan;102572.81;5045433;28;20036;-91
2021/06/03 07:27:55;;;;;;;6.55;2.67;;;;;;;22.01;nan;102578.56;5074255;28;20016;-91
2021/06/03 07:30:34;;;;;;;;;;;;;;;;;;;;;
2021/06/03 07:33:00;;;;;;;5.13;3.08;;;;;;;22.38;nan;102574.56;5093619;28;20033;-92
2021/06/03 07:35:30;;;;;;;5.22;2.78;;;;;;;22.45;nan;102575.06;5069743;28;20485;-91
2021/06/03 07:38:01;;;;;;;3.67;2.42;;;;;;;22.61;nan;102582.03;5055469;28;20028;-91
2021/06/03 07:40:36;;;;;;;10.93;2.83;;;;;;;22.47;nan;102579.16;5055401;28;20024;-92
2021/06/03 07:43:03;;;;;;;7.07;2.60;;;;;;;22.71;nan;102589.34;5055250;28;20048;-91
2021/06/03 07:45:30;;;;;;;4.43;2.60;;;;;;;22.81;nan;102583.81;5044643;28;20260;-90
2021/06/03 07:47:57;;;;;;;3.65;2.70;;;;;;;22.81;nan;102581.06;5038451;28;20029;-91
2021/06/03 07:50:35;;;;;;;;;;;;;;;;;;;;;
2021/06/03 07:53:06;;;;;;;4.57;2.63;;;;;;;22.88;nan;102571.47;5053906;28;20023;-88
2021/06/03 07:55:32;;;;;;;3.28;2.20;;;;;;;23.03;nan;102575.16;5041132;28;20048;-90
2021/06/03 07:58:01;;;;;;;4.13;2.60;;;;;;;23.11;nan;102567.13;5037828;28;20033;-91
2021/06/03 08:00:28;;;;;;;7.05;2.85;;;;;;;23.24;nan;102562.09;5047112;28;20017;-89
2021/06/03 08:02:55;;;;;;;3.35;2.47;;;;;;;23.33;nan;102563.09;5045200;28;20032;-90
2021/06/03 08:05:23;;;;;;;5.05;2.42;;;;;;;23.24;nan;102559.38;5038204;28;20097;-89
2021/06/03 08:07:50;;;;;;;3.92;2.40;;;;;;;23.38;nan;102560.31;5046568;28;20020;-90
2021/06/03 08:10:19;;;;;;;9.57;2.97;;;;;;;23.32;nan;102564.19;5055605;28;20039;-90
2021/06/03 08:12:45;;;;;;;8.68;2.95;;;;;;;23.46;nan;102565.13;5054448;28;20114;-90
2021/06/03 08:15:12;;;;;;;3.97;2.25;;;;;;;23.52;nan;102566.72;5049019;28;20029;-89
2021/06/03 08:17:38;;;;;;;4.63;2.60;;;;;;;23.48;nan;102560.19;5045529;28;20040;-90
2021/06/03 08:20:08;;;;;;;5.60;2.50;;;;;;;23.62;nan;102565.81;5044286;28;20235;-91
2021/06/03 08:22:33;;;;;;;3.70;2.58;;;;;;;23.89;nan;102566.00;5045647;28;20013;-90
2021/06/03 08:24:59;;;;;;;3.00;2.40;;;;;;;23.87;nan;102572.88;5058938;28;20028;-90
2021/06/03 08:27:25;;;;;;;4.00;2.40;;;;;;;23.94;nan;102573.34;5039895;28;20028;-90
2021/06/03 08:29:53;;;;;;;16.00;3.65;;;;;;;23.96;nan;102571.13;5036068;28;20024;-90
2021/06/03 08:32:22;;;;;;;5.63;2.40;;;;;;;23.98;nan;102571.63;5035872;28;20029;-93
2021/06/03 08:35:14;;;;;;;4.10;2.30;;;;;;;23.99;nan;102573.25;5045545;28;20028;-94
2021/06/03 08:37:48;;;;;;;4.28;2.63;;;;;;;23.92;nan;102572.81;5044670;28;20028;-93
2021/06/03 08:40:18;;;;;;;5.63;2.47;;;;;;;24.14;nan;102572.25;5049274;28;20063;-91
2021/06/03 08:42:44;;;;;;;6.13;2.65;;;;;;;24.29;nan;102572.88;5046965;28;20023;-92
2021/06/03 08:45:47;;;;;;;3.05;2.13;;;;;;;24.27;nan;102561.38;5039592;28;20033;-92
2021/06/03 08:48:14;;;;;;;3.65;2.45;;;;;;;24.41;nan;102564.19;5046797;28;20489;-92
2021/06/03 08:50:51;;;;;;;3.88;2.20;;;;;;;24.44;nan;102560.06;5036741;28;20051;-92
2021/06/03 08:53:18;;;;;;;3.83;2.53;;;;;;;24.40;nan;102559.81;5038560;28;20040;-91
2021/06/03 08:58:29;;;;;;;2.92;2.50;;;;;;;24.68;nan;102558.00;5053302;28;20048;-86
2021/06/03 09:00:57;;;;;;;6.55;2.72;;;;;;;24.78;nan;102568.00;5051309;28;20478;-86
2021/06/03 09:03:24;;;;;;;4.95;2.50;;;;;;;24.88;nan;102559.56;5035911;28;20031;-87
2021/06/03 09:05:50;;;;;;;9.25;3.40;;;;;;;24.86;nan;102561.81;5031503;28;20029;-86
2021/06/03 09:08:25;;;;;;;8.73;2.95;;;;;;;24.86;nan;102554.41;5037557;28;20017;-86
2021/06/03 09:10:56;;;;;;;4.40;2.50;;;;;;;24.92;nan;102544.94;5041784;28;20024;-86
2021/06/03 09:13:31;;;;;;;5.90;2.38;;;;;;;25.04;nan;102549.19;5030135;28;20031;-87
2021/06/03 09:16:16;;;;;;;4.80;2.33;;;;;;;25.02;nan;102560.44;5052399;28;20024;-86
2021/06/03 09:18:50;;;;;;;4.90;2.72;;;;;;;25.13;nan;102550.09;5036242;28;20037;-87
2021/06/03 09:21:24;;;;;;;3.85;2.38;;;;;;;25.15;nan;102556.13;5037751;28;20109;-86
2021/06/03 09:24:19;;;;;;;2.45;2.15;;;;;;;25.33;nan;102557.97;5040503;28;20075;-87
2021/06/03 09:26:44;;;;;;;3.67;2.20;;;;;;;25.30;nan;102553.06;5035336;28;20112;-87
2021/06/03 09:29:11;;;;;;;3.33;2.40;;;;;;;25.30;nan;102556.59;5034803;28;20132;-86
2021/06/03 09:31:37;;;;;;;6.93;2.10;;;;;;;25.37;nan;102556.22;5038279;28;20029;-85
2021/06/03 09:34:08;;;;;;;4.50;2.53;;;;;;;25.38;nan;102557.84;5032200;28;20395;-86
2021/06/03 09:36:49;;;;;;;6.07;3.10;;;;;;;25.45;nan;102547.25;5048623;28;20029;-88
2021/06/03 09:39:21;;;;;;;5.50;3.15;;;;;;;25.46;nan;102550.81;5031857;28;20035;-88
2021/06/03 09:41:52;;;;;;;2.60;2.40;;;;;;;25.53;nan;102549.31;5036993;28;20053;-87
2021/06/03 09:44:39;;;;;;;3.83;2.30;;;;;;;25.71;nan;102547.59;5050967;28;20051;-88
2021/06/03 09:47:08;;;;;;;3.65;2.60;;;;;;;25.80;nan;102544.94;5038656;28;20947;-87
2021/06/03 09:49:38;;;;;;;3.17;2.53;;;;;;;25.89;nan;102551.31;5037972;28;20047;-88
2021/06/03 09:52:15;;;;;;;6.43;2.60;;;;;;;25.91;nan;102540.84;5051147;28;20135;-94
2021/06/03 09:54:51;;;;;;;5.30;2.47;;;;;;;25.88;nan;102533.22;5039442;28;20234;-88
2021/06/03 09:57:19;;;;;;;2.97;2.35;;;;;;;25.86;nan;102536.28;5037212;28;20037;-88
2021/06/03 09:59:47;;;;;;;6.43;2.67;;;;;;;25.87;nan;102532.41;5042211;28;20402;-89
2021/06/03 10:02:14;;;;;;;5.30;2.58;;;;;;;25.80;nan;102532.00;5041020;28;20063;-90
2021/06/03 10:04:49;;;;;;;2.60;2.40;;;;;;;26.06;nan;102542.44;5047899;28;20057;-89
2021/06/03 10:07:22;;;;;;;4.78;2.35;;;;;;;26.07;nan;102531.13;5041467;28;20167;-90
2021/06/03 10:10:10;;;;;;;7.05;2.47;;;;;;;25.73;nan;102531.63;5040944;28;20064;-92
2021/06/03 10:12:39;;;;;;;3.15;2.25;;;;;;;25.88;nan;102545.03;5039906;28;20025;-89
2021/06/03 10:15:32;;;;;;;4.20;2.67;;;;;;;26.14;nan;102538.94;5051994;28;20033;-88
2021/06/03 10:18:02;;;;;;;2.97;2.58;;;;;;;26.27;nan;102520.78;5047225;28;20128;-90
2021/06/03 10:20:50;;;;;;;30.83;6.68;;;;;;;26.10;nan;102525.03;5042080;28;20036;-91
2021/06/03 10:23:19;;;;;;;3.05;2.20;;;;;;;26.20;nan;102527.50;5044902;28;20548;-91
2021/06/03 10:25:50;;;;;;;6.13;2.58;;;;;;;26.15;nan;102521.34;5040058;28;20037;-91
2021/06/03 10:28:23;;;;;;;4.70;2.47;;;;;;;26.35;nan;102525.56;5046012;28;20024;-92
2021/06/03 10:30:55;;;;;;;6.17;3.03;;;;;;;26.46;nan;102535.19;5044837;28;20024;-91
2021/06/03 10:33:25;;;;;;;2.65;2.30;;;;;;;26.45;nan;102531.63;5037709;28;20359;-91
2021/06/03 10:35:53;;;;;;;19.90;3.22;;;;;;;26.54;nan;102528.91;5050559;28;20028;-90
2021/06/03 10:38:34;;;;;;;3.63;2.10;;;;;;;26.61;nan;102514.75;5038737;28;20037;-90
2021/06/03 10:41:06;;;;;;;11.23;3.03;;;;;;;26.54;nan;102511.63;5049668;28;20024;-91
2021/06/03 10:43:45;;;;;;;5.13;2.47;;;;;;;26.74;nan;102514.66;5047183;28;20033;-93
2021/06/03 10:46:11;;;;;;;5.70;2.50;;;;;;;26.89;nan;102505.19;5042349;28;20021;-92
2021/06/03 10:48:41;;;;;;;4.00;2.22;;;;;;;26.96;nan;102510.25;5037851;28;20522;-92
2021/06/03 10:51:13;;;;;;;5.22;2.67;;;;;;;26.96;nan;102502.00;5049311;28;20316;-93
2021/06/03 10:53:48;;;;;;;4.60;2.28;;;;;;;27.03;nan;102507.88;5045239;28;20124;-95
2021/06/03 10:56:18;;;;;;;4.10;2.63;;;;;;;27.00;nan;102503.81;5056165;22;20048;-50
2021/06/03 10:58:44;;;;;;;4.78;2.72;;;;;;;27.02;nan;102500.75;5047627;28;20226;-52
2021/06/03 11:01:14;;;;;;;3.15;2.33;;;;;;;27.12;nan;102499.66;5049096;28;20503;-48
2021/06/03 11:03:45;;;;;;;5.30;2.55;;;;;;;26.98;nan;102494.22;5053088;28;20616;-51
2021/06/03 11:06:14;;;;;;;4.40;2.60;;;;;;;27.21;nan;102486.75;5049643;28;20033;-48
2021/06/03 11:09:04;;;;;;;5.22;2.50;;;;;;;27.32;nan;102491.63;5052392;28;20078;-52
2021/06/03 11:11:45;;;;;;;4.18;2.40;;;;;;;27.32;nan;102493.56;5048590;28;20043;-48
2021/06/03 11:14:15;;;;;;;24.33;3.60;;;;;;;27.14;nan;102486.41;5050566;28;20052;-48
2021/06/03 11:16:40;;;;;;;6.88;2.88;;;;;;;27.10;nan;102486.19;5048511;28;20104;-49
2021/06/03 11:19:10;;;;;;;3.75;2.38;;;;;;;27.18;nan;102485.44;5046710;28;20450;-47
2021/06/03 11:21:41;;;;;;;3.40;2.20;;;;;;;27.20;nan;102479.63;5047588;28;20693;-47
2021/06/03 11:24:08;;;;;;;5.82;3.38;;;;;;;27.20;nan;102482.38;5045919;28;20121;-47
2021/06/03 11:26:36;;;;;;;4.88;2.40;;;;;;;27.34;nan;102483.88;5030053;28;20483;-47
2021/06/03 11:29:25;;;;;;;3.80;2.83;;;;;;;27.37;nan;102488.72;5049760;28;20024;-49
2021/06/03 11:32:12;;;;;;;3.58;2.50;;;;;;;27.33;nan;102482.25;5047447;28;20039;-47
2021/06/03 11:34:40;;;;;;;5.03;2.38;;;;;;;27.44;nan;102477.22;5048013;28;20774;-47
2021/06/03 11:37:22;;;;;;;4.88;2.72;;;;;;;27.61;nan;102474.50;5046908;28;20036;-48
2021/06/03 11:40:13;;;;;;;4.32;2.50;;;;;;;27.76;nan;102477.97;5047048;28;20029;-48
2021/06/03 11:43:05;;;;;;;4.95;2.80;;;;;;;27.81;nan;102478.59;5046475;28;20106;-47
2021/06/03 11:45:33;;;;;;;4.97;2.70;;;;;;;28.00;nan;102472.75;5044171;28;20033;-47
2021/06/03 11:48:05;;;;;;;3.45;2.53;;;;;;;28.31;nan;102478.13;5046191;28;20490;-47
2021/06/03 11:50:30;;;;;;;8.63;2.65;;;;;;;27.33;nan;102471.25;5048045;28;20024;-47
2021/06/03 11:52:56;;;;;;;6.40;2.97;;;;;;;26.92;nan;102467.97;5045483;28;20040;-47
2021/06/03 11:55:41;;;;;;;4.63;2.90;;;;;;;27.56;nan;102465.59;5044956;28;20044;-47
2021/06/03 11:58:21;;;;;;;3.78;2.72;;;;;;;27.90;nan;102470.34;5046118;28;20116;-48
2021/06/03 12:01:07;;;;;;;3.38;2.90;;;;;;;28.22;nan;102463.53;5045548;28;20164;-48
2021/06/03 12:03:41;;;;;;;4.53;2.90;;;;;;;28.36;nan;102455.06;5047483;28;20648;-48
2021/06/03 12:06:15;;;;;;;5.30;2.60;;;;;;;28.51;nan;102457.31;5044029;28;20060;-48
2021/06/03 12:08:53;;;;;;;3.67;2.65;;;;;;;28.29;nan;102463.84;5047570;28;20017;-47
2021/06/03 12:11:41;;;;;;;4.57;2.65;;;;;;;28.41;nan;102457.69;5048333;28;20027;-47
2021/06/03 12:14:10;;;;;;;3.45;3.00;;;;;;;28.49;nan;102456.84;5046850;28;20034;-48
2021/06/03 12:16:51;;;;;;;4.47;3.05;;;;;;;28.60;nan;102455.34;5046104;28;20658;-49